createdAt,value
2023-04-04T00:00:00.243Z,973.2
2023-04-04T00:01:00.245Z,973.2
2023-04-04T00:02:00.236Z,972.7
2023-04-04T00:03:00.280Z,972.7
2023-04-04T00:04:00.412Z,972.7
2023-04-04T00:05:00.258Z,972.7
2023-04-04T00:06:00.221Z,972.7
2023-04-04T00:07:00.232Z,972.7
2023-04-04T00:08:00.248Z,972.7
2023-04-04T00:09:00.237Z,972.7
2023-04-04T00:10:00.273Z,973.2
2023-04-04T00:11:00.237Z,973
2023-04-04T00:12:00.252Z,972.7
2023-04-04T00:13:00.249Z,972.7
2023-04-04T00:14:00.242Z,972.7
2023-04-04T00:15:00.254Z,973.2
2023-04-04T00:16:00.251Z,973.2
2023-04-04T00:17:00.258Z,973.2
2023-04-04T00:18:00.308Z,973.4
2023-04-04T00:19:00.236Z,973
2023-04-04T00:20:00.262Z,973.4
2023-04-04T00:21:00.240Z,973.2
2023-04-04T00:22:00.282Z,973.2
2023-04-04T00:23:00.254Z,973.2
2023-04-04T00:24:00.240Z,973.2
2023-04-04T00:25:00.278Z,973.2
2023-04-04T00:26:00.244Z,973.2
2023-04-04T00:27:00.263Z,973.2
2023-04-04T00:28:00.250Z,973.2
2023-04-04T00:29:00.265Z,973.4
2023-04-04T00:30:00.308Z,973.2
2023-04-04T00:31:00.250Z,973.2
2023-04-04T00:32:00.340Z,973.6
2023-04-04T00:33:00.361Z,973.4
2023-04-04T00:34:00.249Z,973.2
2023-04-04T00:35:00.277Z,973.2
2023-04-04T00:36:00.284Z,973.2
2023-04-04T00:37:00.279Z,973.2
2023-04-04T00:38:00.293Z,973.2
2023-04-04T00:39:00.265Z,973.2
2023-04-04T00:40:00.282Z,973.2
2023-04-04T00:41:00.292Z,973.2
2023-04-04T00:42:00.275Z,973.4
2023-04-04T00:43:00.259Z,973.4
2023-04-04T00:44:00.282Z,973.2
2023-04-04T00:45:00.276Z,973.2
2023-04-04T00:46:00.312Z,973.2
2023-04-04T00:47:00.288Z,973.2
2023-04-04T00:48:00.283Z,973.4
2023-04-04T00:49:00.288Z,973.4
2023-04-04T00:50:00.309Z,973.2
2023-04-04T00:51:00.307Z,973.2
2023-04-04T00:52:00.293Z,973.2
2023-04-04T00:53:00.341Z,973.2
2023-04-04T00:54:00.279Z,973.2
2023-04-04T00:55:00.275Z,973.2
2023-04-04T00:56:00.310Z,973
2023-04-04T00:57:00.292Z,973.2
2023-04-04T00:58:00.301Z,973.2
2023-04-04T00:59:00.348Z,973.4
2023-04-04T01:00:00.318Z,973.6
2023-04-04T01:01:00.354Z,973.6
2023-04-04T01:02:00.323Z,973.6
2023-04-04T01:03:00.318Z,973.4
2023-04-04T01:04:00.363Z,973.2
2023-04-04T01:05:00.322Z,973.2
2023-04-04T01:06:00.332Z,973.6
2023-04-04T01:07:00.326Z,973.2
2023-04-04T01:08:00.306Z,972.7
2023-04-04T01:09:00.302Z,972.7
2023-04-04T01:10:00.341Z,972.5
2023-04-04T01:11:00.322Z,972.7
2023-04-04T01:12:00.323Z,973.2
2023-04-04T01:13:00.415Z,973.2
2023-04-04T01:14:00.297Z,973.2
2023-04-04T01:15:00.362Z,973.4
2023-04-04T01:16:00.398Z,973.2
2023-04-04T01:17:00.484Z,973.2
2023-04-04T01:18:00.374Z,973
2023-04-04T01:19:00.338Z,973
2023-04-04T01:20:00.340Z,973
2023-04-04T01:21:00.412Z,972.7
2023-04-04T01:22:00.338Z,972.7
2023-04-04T01:23:00.355Z,972.7
2023-04-04T01:24:00.373Z,972.7
2023-04-04T01:25:00.471Z,972.7
2023-04-04T01:26:00.416Z,972.7
2023-04-04T01:27:00.404Z,972.7
2023-04-04T01:28:00.585Z,972.7
2023-04-04T01:29:00.425Z,972.7
2023-04-04T01:30:00.527Z,973
2023-04-04T01:31:00.538Z,973
2023-04-04T01:32:00.467Z,973.2
2023-04-04T01:33:00.571Z,973.2
2023-04-04T01:34:00.455Z,973.6
2023-04-04T01:35:00.451Z,973.6
2023-04-04T01:36:00.496Z,973.6
2023-04-04T01:37:00.441Z,973.2
2023-04-04T01:38:00.499Z,973.2
2023-04-04T01:39:00.492Z,973.6
2023-04-04T01:40:00.493Z,973.6
2023-04-04T01:41:00.511Z,973.6
2023-04-04T01:42:00.501Z,973.2
2023-04-04T01:43:00.540Z,973.2
2023-04-04T01:44:00.342Z,973.2
2023-04-04T01:45:00.566Z,973.4
2023-04-04T01:46:00.634Z,973.6
2023-04-04T01:47:00.442Z,973.4
2023-04-04T01:48:00.481Z,973.6
2023-04-04T01:49:00.374Z,973.6
2023-04-04T01:50:00.353Z,973.8
2023-04-04T01:51:00.333Z,974
2023-04-04T01:52:00.372Z,974
2023-04-04T01:53:00.367Z,973.6
2023-04-04T01:54:00.339Z,974
2023-04-04T01:55:00.345Z,973.6
2023-04-04T01:56:00.381Z,973.6
2023-04-04T01:57:00.365Z,973.4
2023-04-04T01:58:00.374Z,973.8
2023-04-04T01:59:00.397Z,974
2023-04-04T02:00:00.376Z,974
2023-04-04T02:01:01.360Z,973.8
2023-04-04T02:02:01.293Z,973.6
2023-04-04T02:03:01.324Z,974
2023-04-04T02:04:01.304Z,974
2023-04-04T02:05:01.297Z,974
2023-04-04T02:06:01.328Z,974
2023-04-04T02:07:01.308Z,974.3
2023-04-04T02:08:01.316Z,974
2023-04-04T02:09:01.318Z,974
2023-04-04T02:10:01.447Z,974.5
2023-04-04T02:11:01.339Z,974.5
2023-04-04T02:12:01.325Z,974.3
2023-04-04T02:13:01.336Z,974.3
2023-04-04T02:14:01.330Z,974.3
2023-04-04T02:15:01.326Z,974.5
2023-04-04T02:16:01.443Z,974.3
2023-04-04T02:17:01.310Z,974
2023-04-04T02:18:02.194Z,974.3
2023-04-04T02:19:01.321Z,974
2023-04-04T02:20:01.334Z,974.3
2023-04-04T02:21:01.328Z,974
2023-04-04T02:22:01.319Z,974
2023-04-04T02:23:01.350Z,974.5
2023-04-04T02:24:01.350Z,974.5
2023-04-04T02:25:01.327Z,974.5
2023-04-04T02:26:01.354Z,974.5
2023-04-04T02:27:01.330Z,974.5
2023-04-04T02:28:01.333Z,974.5
2023-04-04T02:29:01.336Z,974.7
2023-04-04T02:30:01.376Z,974.7
2023-04-04T02:31:01.367Z,974.7
2023-04-04T02:32:01.332Z,974.5
2023-04-04T02:33:01.375Z,974.5
2023-04-04T02:34:01.333Z,974.3
2023-04-04T02:35:01.341Z,974.5
2023-04-04T02:36:01.336Z,974.5
2023-04-04T02:37:01.325Z,974.7
2023-04-04T02:38:01.350Z,974.9
2023-04-04T02:39:01.330Z,974.5
2023-04-04T02:40:01.346Z,974.5
2023-04-04T02:41:01.353Z,974.5
2023-04-04T02:42:01.332Z,974.7
2023-04-04T02:43:01.331Z,974.7
2023-04-04T02:44:01.334Z,974.9
2023-04-04T02:45:01.364Z,974.9
2023-04-04T02:46:10.831Z,974.9
2023-04-04T02:47:01.436Z,974.9
2023-04-04T02:48:01.382Z,974.9
2023-04-04T02:49:01.341Z,974.9
2023-04-04T02:50:01.365Z,974.9
2023-04-04T02:51:01.344Z,974.9
2023-04-04T02:52:01.361Z,975.1
2023-04-04T02:53:01.436Z,974.9
2023-04-04T02:54:01.356Z,975.1
2023-04-04T02:55:01.348Z,974.9
2023-04-04T02:56:01.350Z,974.9
2023-04-04T02:57:01.371Z,974.9
2023-04-04T02:58:01.364Z,975.4
2023-04-04T02:59:01.398Z,975.4
2023-04-04T03:00:01.384Z,975.4
2023-04-04T03:01:01.408Z,975.4
2023-04-04T03:02:01.393Z,975.4
2023-04-04T03:03:01.474Z,975.4
2023-04-04T03:04:01.489Z,975.4
2023-04-04T03:05:01.371Z,975.4
2023-04-04T03:06:01.376Z,975.6
2023-04-04T03:07:01.377Z,975.4
2023-04-04T03:08:01.377Z,975.4
2023-04-04T03:09:01.373Z,975.4
2023-04-04T03:10:01.397Z,975.6
2023-04-04T03:11:01.388Z,975.6
2023-04-04T03:12:01.370Z,975.8
2023-04-04T03:13:01.368Z,975.4
2023-04-04T03:14:01.370Z,975.6
2023-04-04T03:15:01.386Z,975.8
2023-04-04T03:16:01.408Z,975.8
2023-04-04T03:17:01.390Z,975.8
2023-04-04T03:18:01.395Z,975.8
2023-04-04T03:19:01.370Z,975.8
2023-04-04T03:20:01.391Z,975.8
2023-04-04T03:21:01.386Z,975.8
2023-04-04T03:22:01.371Z,975.8
2023-04-04T03:23:01.404Z,975.8
2023-04-04T03:24:01.395Z,975.8
2023-04-04T03:25:01.395Z,975.8
2023-04-04T03:26:01.377Z,976.2
2023-04-04T03:27:01.387Z,976.2
2023-04-04T03:28:01.418Z,976.2
2023-04-04T03:29:01.410Z,976.2
2023-04-04T03:30:01.405Z,976.2
2023-04-04T03:31:01.388Z,976.2
2023-04-04T03:32:01.469Z,976.2
2023-04-04T03:33:01.423Z,976.2
2023-04-04T03:34:01.417Z,976.2
2023-04-04T03:35:01.407Z,976.2
2023-04-04T03:36:01.423Z,976.4
2023-04-04T03:37:01.426Z,976.4
2023-04-04T03:38:01.417Z,976.4
2023-04-04T03:39:01.387Z,976.4
2023-04-04T03:40:01.399Z,976.4
2023-04-04T03:41:01.397Z,976.4
2023-04-04T03:42:01.407Z,976.7
2023-04-04T03:43:01.400Z,976.2
2023-04-04T03:44:01.404Z,976.7
2023-04-04T03:45:01.400Z,976.7
2023-04-04T03:46:01.420Z,976.7
2023-04-04T03:47:01.414Z,976.7
2023-04-04T03:48:01.431Z,976.7
2023-04-04T03:49:01.407Z,976.7
2023-04-04T03:50:01.426Z,976.7
2023-04-04T03:51:01.417Z,976.7
2023-04-04T03:52:01.424Z,976.7
2023-04-04T03:53:01.421Z,976.7
2023-04-04T03:54:01.412Z,976.7
2023-04-04T03:55:01.410Z,976.7
2023-04-04T03:56:01.425Z,976.7
2023-04-04T03:57:01.416Z,976.9
2023-04-04T03:58:01.409Z,976.9
2023-04-04T03:59:01.419Z,977.1
2023-04-04T04:00:00.180Z,977.1
2023-04-04T04:01:00.204Z,977.1
2023-04-04T04:02:00.164Z,977.1
2023-04-04T04:03:00.250Z,977.1
2023-04-04T04:04:00.251Z,977.1
2023-04-04T04:05:00.185Z,977.3
2023-04-04T04:06:00.176Z,977.5
2023-04-04T04:07:00.163Z,977.1
2023-04-04T04:08:00.188Z,977.1
2023-04-04T04:09:00.187Z,977.1
2023-04-04T04:10:00.207Z,977.3
2023-04-04T04:11:00.168Z,977.3
2023-04-04T04:12:00.172Z,977.3
2023-04-04T04:13:00.186Z,977.3
2023-04-04T04:14:00.193Z,977.1
2023-04-04T04:15:00.188Z,977.3
2023-04-04T04:16:00.266Z,977.5
2023-04-04T04:17:00.201Z,977.5
2023-04-04T04:18:00.279Z,977.7
2023-04-04T04:19:00.227Z,977.7
2023-04-04T04:20:00.207Z,977.7
2023-04-04T04:21:00.179Z,977.5
2023-04-04T04:22:00.197Z,977.7
2023-04-04T04:23:00.180Z,978
2023-04-04T04:24:00.395Z,978
2023-04-04T04:25:00.209Z,977.7
2023-04-04T04:26:00.195Z,978
2023-04-04T04:27:00.316Z,978
2023-04-04T04:28:00.242Z,978
2023-04-04T04:29:00.237Z,977.7
2023-04-04T04:30:00.430Z,978
2023-04-04T04:31:00.310Z,978
2023-04-04T04:32:00.262Z,978
2023-04-04T04:33:00.384Z,977.7
2023-04-04T04:34:00.253Z,977.7
2023-04-04T04:35:00.337Z,977.7
2023-04-04T04:36:01.637Z,978
2023-04-04T04:37:00.379Z,978
2023-04-04T04:38:00.330Z,978
2023-04-04T04:39:00.363Z,978
2023-04-04T04:40:00.221Z,978
2023-04-04T04:41:00.415Z,978
2023-04-04T04:42:00.471Z,978.2
2023-04-04T04:43:00.419Z,978
2023-04-04T04:44:00.477Z,978
2023-04-04T04:45:00.476Z,978.2
2023-04-04T04:46:00.352Z,978.2
2023-04-04T04:47:00.500Z,978.4
2023-04-04T04:48:00.530Z,978.4
2023-04-04T04:49:00.512Z,978.2
2023-04-04T04:50:00.514Z,978
2023-04-04T04:51:00.405Z,978.4
2023-04-04T04:52:00.442Z,978.4
2023-04-04T04:53:00.226Z,978.4
2023-04-04T04:54:00.414Z,978.4
2023-04-04T04:55:00.355Z,978.2
2023-04-04T04:56:00.226Z,978.2
2023-04-04T04:57:00.254Z,978.4
2023-04-04T04:58:00.230Z,978.4
2023-04-04T04:59:00.304Z,978.6
2023-04-04T05:00:00.394Z,978.8
2023-04-04T05:01:00.281Z,978.8
2023-04-04T05:02:00.253Z,978.6
2023-04-04T05:03:00.254Z,978.4
2023-04-04T05:04:00.240Z,978.4
2023-04-04T05:05:00.246Z,978.6
2023-04-04T05:06:00.265Z,978.4
2023-04-04T05:07:00.232Z,978.6
2023-04-04T05:08:00.245Z,978.6
2023-04-04T05:09:00.243Z,978.6
2023-04-04T05:10:00.245Z,978.6
2023-04-04T05:11:00.257Z,978.6
2023-04-04T05:12:00.235Z,978.4
2023-04-04T05:13:00.233Z,978.8
2023-04-04T05:14:00.237Z,978.8
2023-04-04T05:15:00.261Z,978.8
2023-04-04T05:16:00.285Z,978.8
2023-04-04T05:17:00.362Z,978.8
2023-04-04T05:18:00.327Z,978.8
2023-04-04T05:19:00.250Z,978.6
2023-04-04T05:20:00.319Z,978.8
2023-04-04T05:21:00.260Z,978.6
2023-04-04T05:22:00.261Z,978.8
2023-04-04T05:23:00.249Z,978.8
2023-04-04T05:24:00.242Z,978.8
2023-04-04T05:25:00.271Z,978.8
2023-04-04T05:26:00.271Z,978.8
2023-04-04T05:27:00.261Z,978.8
2023-04-04T05:28:00.250Z,978.8
2023-04-04T05:29:00.254Z,978.8
2023-04-04T05:30:00.288Z,979
2023-04-04T05:31:00.266Z,979
2023-04-04T05:32:00.262Z,978.8
2023-04-04T05:33:00.265Z,978.8
2023-04-04T05:34:00.252Z,978.8
2023-04-04T05:35:00.335Z,978.6
2023-04-04T05:36:00.401Z,978.6
2023-04-04T05:37:00.262Z,978.6
2023-04-04T05:38:00.264Z,978.8
2023-04-04T05:39:00.255Z,978.6
2023-04-04T05:40:00.286Z,978.8
2023-04-04T05:41:00.266Z,978.8
2023-04-04T05:42:00.265Z,978.6
2023-04-04T05:43:00.275Z,978.8
2023-04-04T05:44:00.286Z,978.8
2023-04-04T05:45:00.317Z,978.6
2023-04-04T05:46:00.331Z,978.6
2023-04-04T05:47:00.305Z,978.6
2023-04-04T05:48:00.351Z,978.6
2023-04-04T05:49:00.286Z,978.8
2023-04-04T05:50:00.309Z,978.4
2023-04-04T05:51:00.307Z,978.4
2023-04-04T05:52:00.280Z,978.4
2023-04-04T05:53:00.277Z,978.4
2023-04-04T05:54:00.279Z,978.4
2023-04-04T05:55:00.313Z,978.2
2023-04-04T05:56:00.283Z,978
2023-04-04T05:57:00.285Z,978
2023-04-04T05:58:00.301Z,978
2023-04-04T05:59:00.315Z,978
2023-04-04T06:00:00.305Z,978
2023-04-04T06:01:00.301Z,978
2023-04-04T06:02:00.306Z,978
2023-04-04T06:03:00.480Z,977.7
2023-04-04T06:04:00.311Z,977.5
2023-04-04T06:05:00.314Z,977.5
2023-04-04T06:06:00.355Z,977.7
2023-04-04T06:07:00.305Z,977.7
2023-04-04T06:08:00.366Z,977.7
2023-04-04T06:09:00.294Z,977.5
2023-04-04T06:10:00.314Z,977.5
2023-04-04T06:11:00.313Z,977.5
2023-04-04T06:12:00.309Z,977.5
2023-04-04T06:13:00.318Z,977.5
2023-04-04T06:14:00.310Z,977.5
2023-04-04T06:15:00.307Z,977.3
2023-04-04T06:16:00.356Z,977.1
2023-04-04T06:17:00.301Z,977.1
2023-04-04T06:18:00.367Z,977.5
2023-04-04T06:19:00.318Z,977.3
2023-04-04T06:20:00.306Z,977.1
2023-04-04T06:21:00.319Z,977.1
2023-04-04T06:22:00.317Z,977.1
2023-04-04T06:23:00.347Z,977.1
2023-04-04T06:24:00.314Z,977.1
2023-04-04T06:25:00.312Z,976.9
2023-04-04T06:26:00.316Z,977.1
2023-04-04T06:27:00.323Z,977.1
2023-04-04T06:28:00.339Z,977.1
2023-04-04T06:29:00.347Z,976.9
2023-04-04T06:30:01.706Z,976.7
2023-04-04T06:31:00.324Z,976.7
2023-04-04T06:32:00.314Z,977.1
2023-04-04T06:33:00.389Z,976.9
2023-04-04T06:34:00.326Z,976.7
2023-04-04T06:35:00.318Z,977.1
2023-04-04T06:36:00.353Z,976.7
2023-04-04T06:37:00.361Z,976.4
2023-04-04T06:38:00.344Z,976.4
2023-04-04T06:39:00.333Z,976.4
2023-04-04T06:40:00.344Z,976.4
2023-04-04T06:41:00.339Z,976.2
2023-04-04T06:42:00.351Z,976.2
2023-04-04T06:43:00.357Z,976.2
2023-04-04T06:44:00.332Z,976.2
2023-04-04T06:45:00.340Z,976
2023-04-04T06:46:00.332Z,975.8
2023-04-04T06:47:00.460Z,975.8
2023-04-04T06:48:00.395Z,975.8
2023-04-04T06:49:00.354Z,975.8
2023-04-04T06:50:00.339Z,975.8
2023-04-04T06:51:00.353Z,975.8
2023-04-04T06:52:00.340Z,975.4
2023-04-04T06:53:00.378Z,975.4
2023-04-04T06:54:00.352Z,975.4
2023-04-04T06:55:00.349Z,975.4
2023-04-04T06:56:00.352Z,975.4
2023-04-04T06:57:00.354Z,975.4
2023-04-04T06:58:00.378Z,975.6
2023-04-04T06:59:00.389Z,974.7
2023-04-04T07:00:00.371Z,974.9
2023-04-04T07:01:00.368Z,974.7
2023-04-04T07:02:00.372Z,974.9
2023-04-04T07:03:00.428Z,974.9
2023-04-04T07:04:00.352Z,974.5
2023-04-04T07:05:00.369Z,974
2023-04-04T07:06:00.375Z,974
2023-04-04T07:07:00.363Z,974.3
2023-04-04T07:08:00.366Z,974.5
2023-04-04T07:09:00.403Z,974.5
2023-04-04T07:10:00.408Z,974.5
2023-04-04T07:11:00.391Z,974
2023-04-04T07:12:00.364Z,974
2023-04-04T07:13:00.374Z,974.5
2023-04-04T07:14:00.380Z,974.5
2023-04-04T07:15:00.392Z,974
2023-04-04T07:16:00.404Z,974.5
2023-04-04T07:17:02.128Z,974.5
2023-04-04T07:18:00.403Z,974
2023-04-04T07:19:00.377Z,973.2
2023-04-04T07:20:02.229Z,973.2
2023-04-04T07:21:00.387Z,973.2
2023-04-04T07:22:00.367Z,973.2
2023-04-04T07:23:00.378Z,973
2023-04-04T07:24:00.382Z,972.7
2023-04-04T07:25:00.388Z,973
2023-04-04T07:26:00.386Z,972.7
2023-04-04T07:27:00.373Z,972.7
2023-04-04T07:28:11.794Z,972.7
2023-04-04T07:29:00.372Z,972.3
2023-04-04T07:30:00.412Z,971.9
2023-04-04T07:31:00.372Z,972.3
2023-04-04T07:32:00.456Z,972.7
2023-04-04T07:33:00.413Z,972.7
2023-04-04T07:34:00.439Z,972.3
2023-04-04T07:35:00.414Z,972.7
2023-04-04T07:36:00.440Z,971.9
2023-04-04T07:37:00.383Z,971.7
2023-04-04T07:38:00.394Z,971.4
2023-04-04T07:39:00.415Z,971.4
2023-04-04T07:40:00.397Z,971.9
2023-04-04T07:41:02.371Z,971
2023-04-04T07:42:00.433Z,971
2023-04-04T07:43:00.406Z,971.4
2023-04-04T07:44:00.511Z,971.4
2023-04-04T07:45:00.428Z,971
2023-04-04T07:46:00.582Z,970.8
2023-04-04T07:47:09.189Z,970.8
2023-04-04T07:48:00.679Z,970.8
2023-04-04T07:49:00.495Z,970.6
2023-04-04T07:50:00.550Z,970.1
2023-04-04T07:51:00.587Z,970.4
2023-04-04T07:52:00.505Z,970.1
2023-04-04T07:53:00.590Z,970.1
2023-04-04T07:54:00.554Z,969.7
2023-04-04T07:55:00.650Z,969.9
2023-04-04T07:56:00.577Z,968.8
2023-04-04T07:57:00.396Z,969.3
2023-04-04T07:58:00.400Z,968.4
2023-04-04T07:59:00.431Z,968.2
2023-04-04T08:00:00.412Z,968.2
2023-04-04T08:01:00.410Z,967.3
2023-04-04T08:02:00.404Z,968.4
2023-04-04T08:03:00.445Z,967.5
2023-04-04T08:04:00.686Z,967.7
2023-04-04T08:05:00.436Z,967.5
2023-04-04T08:06:00.435Z,967.7
2023-04-04T08:07:00.408Z,967.5
2023-04-04T08:08:00.404Z,967.1
2023-04-04T08:09:00.439Z,967.1
2023-04-04T08:10:00.431Z,966.9
2023-04-04T08:11:00.414Z,966.4
2023-04-04T08:12:00.406Z,966.7
2023-04-04T08:13:00.432Z,967.1
2023-04-04T08:14:00.434Z,965.8
2023-04-04T08:15:00.434Z,966.2
2023-04-04T08:16:00.493Z,966.9
2023-04-04T08:17:00.416Z,966.9
2023-04-04T08:18:00.463Z,966.7
2023-04-04T08:19:00.482Z,965.8
2023-04-04T08:20:00.420Z,964.7
2023-04-04T08:21:00.434Z,965.8
2023-04-04T08:22:00.417Z,965.4
2023-04-04T08:23:00.423Z,962.7
2023-04-04T08:24:00.443Z,964.9
2023-04-04T08:25:00.428Z,964.3
2023-04-04T08:26:00.423Z,963.2
2023-04-04T08:27:05.156Z,963.8
2023-04-04T08:28:00.439Z,964.5
2023-04-04T08:29:00.469Z,964
2023-04-04T08:30:00.430Z,963.6
2023-04-04T08:31:00.446Z,964.3
2023-04-04T08:32:00.454Z,964
2023-04-04T08:33:00.445Z,965.1
2023-04-04T08:34:00.451Z,963.6
2023-04-04T08:35:00.429Z,963.6
2023-04-04T08:36:00.527Z,962.5
2023-04-04T08:37:00.426Z,962.3
2023-04-04T08:38:00.437Z,963.2
2023-04-04T08:39:00.464Z,962.7
2023-04-04T08:40:00.446Z,961.9
2023-04-04T08:41:00.453Z,962.3
2023-04-04T08:42:00.437Z,962.3
2023-04-04T08:43:00.481Z,961.4
2023-04-04T08:44:00.438Z,961.9
2023-04-04T08:45:00.441Z,962.3
2023-04-04T08:46:00.470Z,962.7
2023-04-04T08:47:00.571Z,962.3
2023-04-04T08:48:00.484Z,962.3
2023-04-04T08:49:00.473Z,961.9
2023-04-04T08:50:00.449Z,961.9
2023-04-04T08:51:00.498Z,962.3
2023-04-04T08:52:00.458Z,961.4
2023-04-04T08:53:00.643Z,961.9
2023-04-04T08:54:00.454Z,961.9
2023-04-04T08:55:00.455Z,960.8
2023-04-04T08:56:00.484Z,961.4
2023-04-04T08:57:00.456Z,962.3
2023-04-04T08:58:00.478Z,962.7
2023-04-04T08:59:00.538Z,963.2
2023-04-04T09:00:00.833Z,962.3
2023-04-04T09:01:00.475Z,960.6
2023-04-04T09:02:01.376Z,961
2023-04-04T09:03:00.560Z,960.6
2023-04-04T09:04:00.500Z,959.9
2023-04-04T09:05:06.346Z,960.8
2023-04-04T09:06:00.507Z,961
2023-04-04T09:07:00.469Z,960.6
2023-04-04T09:08:00.493Z,959.7
2023-04-04T09:09:00.486Z,959.7
2023-04-04T09:10:00.583Z,959.7
2023-04-04T09:11:00.493Z,960.4
2023-04-04T09:12:00.479Z,959.7
2023-04-04T09:13:12.543Z,960.6
2023-04-04T09:14:00.489Z,960.8
2023-04-04T09:15:00.488Z,960.4
2023-04-04T09:16:00.507Z,961
2023-04-04T09:17:00.718Z,960.6
2023-04-04T09:18:00.568Z,960.6
2023-04-04T09:19:00.513Z,960.6
2023-04-04T09:20:00.485Z,959.7
2023-04-04T09:21:00.510Z,959
2023-04-04T09:22:00.502Z,958.8
2023-04-04T09:23:00.509Z,959.3
2023-04-04T09:24:00.522Z,960.1
2023-04-04T09:25:00.503Z,960.1
2023-04-04T09:26:04.428Z,960.4
2023-04-04T09:27:00.494Z,960.1
2023-04-04T09:28:00.535Z,959.7
2023-04-04T09:29:00.504Z,958.4
2023-04-04T09:30:00.685Z,959.7
2023-04-04T09:31:00.508Z,960.1
2023-04-04T09:32:00.534Z,959.9
2023-04-04T09:33:00.578Z,958.8
2023-04-04T09:34:00.687Z,958.8
2023-04-04T09:35:00.531Z,960.1
2023-04-04T09:36:00.575Z,959.3
2023-04-04T09:37:00.516Z,959.3
2023-04-04T09:38:00.533Z,958.4
2023-04-04T09:39:00.514Z,959
2023-04-04T09:40:00.635Z,959.7
2023-04-04T09:41:00.517Z,957.7
2023-04-04T09:42:00.511Z,957.3
2023-04-04T09:43:00.549Z,958
2023-04-04T09:44:00.538Z,958.4
2023-04-04T09:45:00.561Z,958.4
2023-04-04T09:46:00.552Z,958
2023-04-04T09:47:00.530Z,958
2023-04-04T09:48:00.574Z,958.2
2023-04-04T09:49:00.537Z,958.4
2023-04-04T09:50:00.620Z,959.3
2023-04-04T09:51:00.554Z,959.3
2023-04-04T09:52:00.551Z,957.7
2023-04-04T09:53:00.551Z,957.5
2023-04-04T09:54:00.523Z,958.8
2023-04-04T09:55:00.563Z,958.4
2023-04-04T09:56:00.550Z,958
2023-04-04T09:57:00.541Z,958
2023-04-04T09:58:00.553Z,958.4
2023-04-04T09:59:03.784Z,958.8
2023-04-04T10:00:00.601Z,958.2
2023-04-04T10:01:00.528Z,957.5
2023-04-04T10:02:00.678Z,956.7
2023-04-04T10:03:00.508Z,957.1
2023-04-04T10:04:00.515Z,958.4
2023-04-04T10:05:05.884Z,958.2
2023-04-04T10:06:00.344Z,957.5
2023-04-04T10:07:00.338Z,957.5
2023-04-04T10:08:00.297Z,956.9
2023-04-04T10:09:00.277Z,958
2023-04-04T10:10:00.307Z,958.8
2023-04-04T10:11:10.455Z,957.5
2023-04-04T10:12:00.173Z,956.7
2023-04-04T10:13:00.149Z,957.1
2023-04-04T10:14:00.153Z,957.1
2023-04-04T10:15:00.148Z,957.5
2023-04-04T10:16:00.205Z,957.3
2023-04-04T10:17:00.117Z,957.1
2023-04-04T10:18:00.198Z,955.6
2023-04-04T10:19:00.142Z,956.2
2023-04-04T10:20:00.193Z,956.4
2023-04-04T10:21:12.093Z,956.7
2023-04-04T10:22:00.137Z,956.7
2023-04-04T10:23:00.132Z,957.5
2023-04-04T10:24:00.136Z,957.1
2023-04-04T10:25:00.154Z,957.7
2023-04-04T10:26:00.154Z,956.7
2023-04-04T10:27:00.120Z,956.2
2023-04-04T10:28:00.133Z,955.4
2023-04-04T10:29:00.243Z,955.8
2023-04-04T10:30:00.165Z,957.3
2023-04-04T10:31:06.424Z,956.7
2023-04-04T10:32:00.160Z,956.2
2023-04-04T10:33:00.207Z,956
2023-04-04T10:34:00.154Z,956.2
2023-04-04T10:35:00.156Z,955.6
2023-04-04T10:36:00.192Z,956.7
2023-04-04T10:37:00.148Z,955.4
2023-04-04T10:38:00.144Z,956.2
2023-04-04T10:39:00.262Z,955.1
2023-04-04T10:40:00.182Z,956.9
2023-04-04T10:41:00.144Z,956.2
2023-04-04T10:42:00.155Z,957.7
2023-04-04T10:43:00.156Z,956.9
2023-04-04T10:44:00.169Z,956.7
2023-04-04T10:45:09.416Z,956.4
2023-04-04T10:46:00.158Z,956.2
2023-04-04T10:47:00.146Z,956.7
2023-04-04T10:48:00.282Z,956.2
2023-04-04T10:49:00.168Z,956.2
2023-04-04T10:50:00.203Z,955.8
2023-04-04T10:51:00.163Z,953.6
2023-04-04T10:52:00.162Z,954.3
2023-04-04T10:53:00.175Z,955.4
2023-04-04T10:54:00.155Z,953.6
2023-04-04T10:55:00.170Z,954.5
2023-04-04T10:56:00.175Z,954.9
2023-04-04T10:57:00.150Z,955.4
2023-04-04T10:58:00.179Z,954.5
2023-04-04T10:59:00.335Z,954.3
2023-04-04T11:00:00.252Z,954.5
2023-04-04T11:01:00.228Z,955.6
2023-04-04T11:02:00.197Z,954.5
2023-04-04T11:03:00.397Z,954.5
2023-04-04T11:04:00.279Z,954.5
2023-04-04T11:05:00.187Z,954.7
2023-04-04T11:06:00.189Z,955.4
2023-04-04T11:07:00.163Z,954.5
2023-04-04T11:08:06.883Z,954.7
2023-04-04T11:09:00.173Z,954.3
2023-04-04T11:10:00.182Z,953.6
2023-04-04T11:11:03.013Z,953.6
2023-04-04T11:12:00.179Z,953.6
2023-04-04T11:13:11.667Z,954
2023-04-04T11:14:00.208Z,954.5
2023-04-04T11:15:00.193Z,955.8
2023-04-04T11:16:00.480Z,955.8
2023-04-04T11:17:00.244Z,956.2
2023-04-04T11:18:00.372Z,954.9
2023-04-04T11:19:00.343Z,954
2023-04-04T11:20:00.234Z,953
2023-04-04T11:21:00.281Z,953.4
2023-04-04T11:22:00.252Z,952.7
2023-04-04T11:23:00.347Z,953.6
2023-04-04T11:24:00.487Z,953.6
2023-04-04T11:25:00.392Z,954
2023-04-04T11:26:00.352Z,954
2023-04-04T11:27:00.318Z,953
2023-04-04T11:28:00.500Z,953.8
2023-04-04T11:29:00.411Z,954.5
2023-04-04T11:30:00.423Z,953.6
2023-04-04T11:31:00.408Z,953.6
2023-04-04T11:32:00.515Z,954.5
2023-04-04T11:33:07.069Z,952.7
2023-04-04T11:34:00.267Z,954.5
2023-04-04T11:35:00.222Z,955.1
2023-04-04T11:36:00.537Z,954.5
2023-04-04T11:37:00.470Z,954.5
2023-04-04T11:38:00.456Z,954.5
2023-04-04T11:39:00.249Z,954
2023-04-04T11:40:00.365Z,954
2023-04-04T11:41:00.452Z,953.2
2023-04-04T11:42:00.308Z,954
2023-04-04T11:43:00.540Z,954.5
2023-04-04T11:44:00.214Z,954
2023-04-04T11:45:00.260Z,954
2023-04-04T11:46:00.249Z,954.7
2023-04-04T11:47:00.210Z,953.6
2023-04-04T11:48:00.293Z,953
2023-04-04T11:49:00.204Z,952.7
2023-04-04T11:50:00.205Z,952.7
2023-04-04T11:51:00.239Z,954.3
2023-04-04T11:52:00.216Z,954
2023-04-04T11:53:00.216Z,954.5
2023-04-04T11:54:00.213Z,954.5
2023-04-04T11:55:00.218Z,953
2023-04-04T11:56:00.235Z,953.8
2023-04-04T11:57:00.236Z,953.4
2023-04-04T11:58:00.233Z,954.3
2023-04-04T11:59:10.729Z,954.7
2023-04-04T12:00:00.246Z,953.2
2023-04-04T12:01:00.247Z,952.7
2023-04-04T12:02:00.218Z,953.2
2023-04-04T12:03:00.341Z,953.8
2023-04-04T12:04:00.242Z,954.5
2023-04-04T12:05:00.380Z,954.5
2023-04-04T12:06:00.310Z,954
2023-04-04T12:07:00.228Z,954
2023-04-04T12:08:00.239Z,954.5
2023-04-04T12:09:00.253Z,954.5
2023-04-04T12:10:00.236Z,953.6
2023-04-04T12:11:00.228Z,953.6
2023-04-04T12:12:00.230Z,953.6
2023-04-04T12:13:00.293Z,952.5
2023-04-04T12:14:00.259Z,953.2
2023-04-04T12:15:10.832Z,953.6
2023-04-04T12:16:00.323Z,954.3
2023-04-04T12:17:00.247Z,954.5
2023-04-04T12:18:00.322Z,954
2023-04-04T12:19:00.264Z,954
2023-04-04T12:20:00.248Z,953
2023-04-04T12:21:00.238Z,953.2
2023-04-04T12:22:00.243Z,953.6
2023-04-04T12:23:00.256Z,952.7
2023-04-04T12:24:00.258Z,952.7
2023-04-04T12:25:00.248Z,953.6
2023-04-04T12:26:00.244Z,952.7
2023-04-04T12:27:00.249Z,953.2
2023-04-04T12:28:00.269Z,954
2023-04-04T12:29:00.271Z,953.6
2023-04-04T12:30:00.248Z,954
2023-04-04T12:31:00.276Z,953.6
2023-04-04T12:32:00.251Z,954
2023-04-04T12:33:00.286Z,953.6
2023-04-04T12:34:00.276Z,953.6
2023-04-04T12:35:00.256Z,951.9
2023-04-04T12:36:00.269Z,953
2023-04-04T12:37:00.258Z,953.6
2023-04-04T12:38:00.281Z,951.9
2023-04-04T12:39:00.278Z,952.7
2023-04-04T12:40:00.262Z,952.7
2023-04-04T12:41:00.263Z,954.5
2023-04-04T12:42:00.256Z,954
2023-04-04T12:43:00.282Z,953.6
2023-04-04T12:44:00.282Z,954.3
2023-04-04T12:45:00.285Z,953.6
2023-04-04T12:46:00.277Z,952.3
2023-04-04T12:47:00.579Z,954
2023-04-04T12:48:00.402Z,954.5
2023-04-04T12:49:00.266Z,953.8
2023-04-04T12:50:00.286Z,954.9
2023-04-04T12:51:00.267Z,954.5
2023-04-04T12:52:00.284Z,954
2023-04-04T12:53:13.595Z,954
2023-04-04T12:54:00.305Z,952.5
2023-04-04T12:55:08.151Z,953
2023-04-04T12:56:00.270Z,951.9
2023-04-04T12:57:00.270Z,952.5
2023-04-04T12:58:00.294Z,951.7
2023-04-04T12:59:00.285Z,951.9